Friday, January 19, 2018, 10:41 AM EST
Back to Local

KABE, Lehigh Valley International Airport

Location: Allentown, PA, United States Lat: 40.65
Local Time: 10:41 AM EST (15:41 GMT) Lon: -75.45
Time Zone: US/Eastern Elev: 393 ft

Show me the last for .
Show Decoded

2018-01-19 09:51 METAR KABE 191451Z 00000KT 6SM HZ CLR M07/M11 A3008 RMK AO2 SLP194 I3000
                 T10671111 53007 =
2018-01-19 08:51 METAR KABE 191351Z 00000KT 6SM BR CLR M09/M11 A3007 RMK AO2 SLP189 T10891111 =
2018-01-19 07:51 METAR KABE 191251Z 00000KT 6SM HZ CLR M11/M14 A3006 RMK AO2 SLP186 I1000
                 T11111139 =
2018-01-19 06:51 METAR KABE 191151Z 29003KT 7SM CLR M12/M15 A3006 RMK AO2 SLP187 I1000 I6000
                 T11221150 11100 21144 53004 =
2018-01-19 05:51 METAR KABE 191051Z 00000KT 7SM CLR M12/M15 A3006 RMK AO2 SLP185 I1000 T11221150
                 =
2018-01-19 04:51 METAR KABE 190951Z 00000KT 8SM CLR M13/M16 A3005 RMK AO2 SLP184 T11281161 =
2018-01-19 03:51 METAR KABE 190851Z 00000KT 8SM CLR M12/M16 A3005 RMK AO2 SLP183 I3000 T11171156
                 53006 =
2018-01-19 02:51 METAR KABE 190751Z 00000KT 8SM CLR M11/M14 A3004 RMK AO2 SLP178 I1000 T11111144
                 =
2018-01-19 01:51 METAR KABE 190651Z 32003KT 7SM CLR M12/M15 A3003 RMK AO2 SLP176 T11171150 =
2018-01-19 00:51 METAR KABE 190551Z 00000KT 9SM CLR M11/M14 A3003 RMK AO2 SLP177 T11061139 11028
                 21106 58015 =
2018-01-18 23:51 METAR KABE 190451Z 25003KT 10SM CLR M10/M14 A3006 RMK AO2 SLP185 T11001144
                 410111156 =
2018-01-18 22:51 METAR KABE 190351Z 23003KT 10SM CLR M09/M14 A3007 RMK AO2 SLP190 T10891139 =
2018-01-18 21:51 METAR KABE 190251Z 25003KT 10SM CLR M08/M13 A3008 RMK AO2 SLP192 T10781133 53014
                 =
2018-01-18 20:51 METAR KABE 190151Z 25003KT 10SM CLR M03/M12 A3007 RMK AO2 SLP187 T10331122 =
2018-01-18 19:51 METAR KABE 190051Z 26005KT 10SM CLR M03/M12 A3005 RMK AO2 SLP181 T10331122 =
2018-01-18 18:51 METAR KABE 182351Z 26005KT 10SM CLR M03/M13 A3004 RMK AO2 SLP178 T10331128 11011
                 21039 53020 =
2018-01-18 17:51 METAR KABE 182251Z AUTO 26004KT 10SM CLR M03/M12 A3001 RMK AO2 SLP168 T10331122
                 =
2018-01-18 16:51 METAR KABE 182151Z 30006KT 10SM CLR M02/M12 A2999 RMK AO2 SLP163 T10221122 =
2018-01-18 15:51 METAR KABE 182051Z 29010KT 10SM CLR M01/M13 A2998 RMK AO2 SLP157 T10111128 55010
                 =
2018-01-18 14:51 METAR KABE 181951Z 31012G18KT 10SM CLR M01/M13 A2998 RMK AO2 SLP157 T10111128 =
2018-01-18 13:51 METAR KABE 181851Z 29010KT 10SM CLR M02/M13 A2999 RMK AO2 SLP161 T10171128 =
2018-01-18 12:51 METAR KABE 181751Z 30014KT 10SM CLR M03/M14 A3001 RMK AO2 UPE49 SLP169 P0000
                 60000 T10281139 11028 21128 58032 =
2018-01-18 11:51 METAR KABE 181651Z 31011KT 10SM UP CLR M03/M14 A3004 RMK AO2 UPB42 SLP181 P0000
                 T10331144 =
2018-01-18 10:51 METAR KABE 181551Z 26008KT 10SM CLR M04/M14 A3009 RMK AO2 SLP195 T10441144 =

Support USWX by starting your Amazon purchase here.